Time;durP1;ratioP1;P1;durP2;ratioP2;P2;SDS_P1;SDS_P2;PMS_P1;PMS_P2;Temp;Humidity;BMP_temperature;BMP_pressure;BME280_temperature;BME280_humidity;BME280_pressure;Samples;Min_cycle;Max_cycle;Signal;HPM_P1;HPM_P2
2021/07/18 20:57:43;;;;;;;;;9.00;8.00;;;;;24.46;53.93;101766.69;5089644;27;45469;-85
2021/07/18 21:00:09;;;;;;;;;10.50;9.00;;;;;24.82;53.39;101762.38;5074483;28;45585;-88
2021/07/18 21:02:37;;;;;;;;;7.25;7.25;;;;;25.19;52.64;101756.16;5075150;28;45297;-87
2021/07/18 21:05:03;;;;;;;;;9.00;7.00;;;;;25.50;51.69;101762.31;5077465;28;45452;-87
2021/07/18 21:07:29;;;;;;;;;7.25;7.25;;;;;25.81;51.12;101767.53;5076872;28;46061;-88
2021/07/18 21:09:54;;;;;;;;;10.00;8.00;;;;;26.05;51.33;101756.84;5077089;28;45386;-87
2021/07/18 21:12:20;;;;;;;;;9.25;7.50;;;;;26.29;50.87;101763.81;5075470;28;45306;-87
2021/07/18 21:14:45;;;;;;;;;8.75;8.25;;;;;26.47;49.81;101757.53;5075687;28;45580;-87
2021/07/18 21:17:11;;;;;;;;;8.25;7.25;;;;;26.64;49.95;101760.06;5073820;28;46597;-88
2021/07/18 21:19:37;;;;;;;;;9.50;8.00;;;;;26.80;48.62;101750.25;5075099;28;45418;-87
2021/07/18 21:22:03;;;;;;;;;7.00;7.00;;;;;26.94;48.76;101757.22;5073891;28;46047;-87
2021/07/18 21:24:30;;;;;;;;;8.00;8.00;;;;;27.07;49.12;101757.97;5075657;27;45610;-87
2021/07/18 21:26:56;;;;;;;;;8.25;8.25;;;;;27.14;48.11;101757.03;5071675;27;46292;-82
2021/07/18 21:29:22;;;;;;;;;11.25;7.50;;;;;27.21;48.29;101760.50;5073753;27;45933;-85
2021/07/18 21:31:47;;;;;;;;;7.75;7.75;;;;;27.26;47.92;101759.56;5070690;28;45407;-85
2021/07/18 21:34:13;;;;;;;;;7.75;7.75;;;;;27.28;47.66;101754.22;5074764;28;45535;-83
2021/07/18 21:36:39;;;;;;;;;8.75;7.75;;;;;27.30;47.51;101758.66;5072185;28;46187;-85
2021/07/18 21:39:05;;;;;;;;;6.50;6.50;;;;;27.30;47.72;101755.09;5071614;27;45487;-84
2021/07/18 21:41:32;;;;;;;;;8.50;7.75;;;;;27.29;47.47;101756.00;5072177;28;45453;-84
2021/07/18 21:43:58;;;;;;;;;8.00;7.25;;;;;27.31;47.47;101759.53;5072512;27;45682;-85
2021/07/18 21:46:24;;;;;;;;;9.50;8.75;;;;;27.32;47.91;101762.16;5071469;28;46052;-84
2021/07/18 21:48:50;;;;;;;;;8.25;7.75;;;;;27.33;47.65;101760.38;5071656;28;45598;-86
2021/07/18 21:51:15;;;;;;;;;9.50;7.75;;;;;27.32;47.83;101759.50;5071720;28;45453;-84
2021/07/18 21:53:41;;;;;;;;;8.75;8.75;;;;;27.29;47.58;101763.97;5073079;28;45687;-86
2021/07/18 21:56:07;;;;;;;;;9.25;7.25;;;;;27.28;47.89;101767.50;5079364;27;45845;-85
2021/07/18 21:58:32;;;;;;;;;6.00;4.50;;;;;27.28;47.75;101762.19;5074544;27;45419;-85
2021/07/18 22:00:58;;;;;;;;;6.50;6.00;;;;;27.26;47.79;101764.00;5092563;27;45497;-86
2021/07/18 22:03:23;;;;;;;;;9.00;7.00;;;;;27.25;47.62;101768.44;5093408;27;45489;-86
2021/07/18 22:05:49;;;;;;;;;7.75;7.75;;;;;27.21;47.71;101771.13;5091230;27;45905;-84
2021/07/18 22:08:15;;;;;;;;;7.25;6.00;;;;;27.19;47.55;101779.16;5082434;27;45448;-86
2021/07/18 22:10:42;;;;;;;;;6.50;6.50;;;;;27.14;47.44;101765.91;5079883;27;45411;-86
2021/07/18 22:13:08;;;;;;;;;7.50;6.00;;;;;27.11;47.88;101776.53;5061409;28;45562;-85
2021/07/18 22:15:36;;;;;;;;;9.00;7.00;;;;;27.12;47.79;101774.75;5078651;28;46215;-85
2021/07/18 22:18:03;;;;;;;;;6.75;6.00;;;;;27.09;47.58;101775.66;5079345;27;45826;-85
2021/07/18 22:20:28;;;;;;;;;7.75;7.00;;;;;27.10;47.58;101779.22;5079529;28;45300;-85
2021/07/18 22:22:54;;;;;;;;;8.00;7.25;;;;;27.07;47.26;101780.13;5080048;28;45548;-84
2021/07/18 22:25:19;;;;;;;;;8.50;7.50;;;;;27.07;47.68;101779.25;5087296;27;45374;-86
2021/07/18 22:27:45;;;;;;;;;9.75;7.00;;;;;27.09;47.90;101783.66;5088386;27;45285;-91
2021/07/18 22:30:17;;;;;;;;;9.00;8.00;;;;;27.07;47.54;101780.13;5078533;27;45457;-86
2021/07/18 22:32:46;;;;;;;;;9.75;7.75;;;;;27.03;47.58;101789.03;5078021;28;45472;-85
2021/07/18 22:35:17;;;;;;;;;8.75;6.75;;;;;26.99;47.87;101776.66;5077893;28;45443;-86
2021/07/18 22:37:43;;;;;;;;;6.50;5.50;;;;;26.93;47.56;101780.25;5077898;28;45432;-85
2021/07/18 22:40:11;;;;;;;;;6.75;6.75;;;;;26.91;47.51;101779.38;5078330;28;45423;-86
2021/07/18 22:42:38;;;;;;;;;5.25;5.25;;;;;26.86;47.93;101778.53;5078174;28;45608;-87
2021/07/18 22:45:05;;;;;;;;;7.25;6.00;;;;;26.82;48.22;101776.78;5078468;27;45321;-85
2021/07/18 22:47:31;;;;;;;;;5.75;5.75;;;;;26.81;48.15;101777.66;5078602;27;45582;-86
2021/07/18 22:49:57;;;;;;;;;5.50;5.50;;;;;26.82;48.04;101779.44;5078969;28;45878;-85
2021/07/18 22:52:22;;;;;;;;;8.75;7.25;;;;;26.81;47.62;101781.22;5060695;28;45368;-85
2021/07/18 22:54:48;;;;;;;;;8.00;6.25;;;;;26.81;48.01;101775.00;5078002;27;45942;-85
2021/07/18 22:57:13;;;;;;;;;7.50;7.50;;;;;26.79;47.79;101769.72;5078832;27;45410;-86
2021/07/18 22:59:39;;;;;;;;;7.25;5.75;;;;;26.77;48.19;101776.78;5078608;28;45409;-85
2021/07/18 23:02:05;;;;;;;;;9.50;6.75;;;;;26.72;48.13;101776.81;5059449;28;45454;-85
2021/07/18 23:04:31;;;;;;;;;8.25;7.00;;;;;26.69;47.80;101782.16;5077943;28;46521;-86
2021/07/18 23:06:57;;;;;;;;;7.25;6.00;;;;;26.64;47.84;101783.97;5077967;28;45410;-85
2021/07/18 23:09:24;;;;;;;;;6.75;6.25;;;;;26.63;48.31;101776.91;5077429;28;45356;-85
2021/07/18 23:11:50;;;;;;;;;7.50;7.50;;;;;26.62;47.39;101779.56;5077611;27;45554;-85
2021/07/18 23:14:16;;;;;;;;;6.75;6.75;;;;;26.58;47.92;101779.59;5077379;27;45897;-86
2021/07/18 23:16:41;;;;;;;;;6.75;6.75;;;;;26.60;48.35;101776.03;5077702;28;45927;-85
2021/07/18 23:19:07;;;;;;;;;9.00;6.50;;;;;26.57;47.51;101775.16;5076917;27;45410;-85
2021/07/18 23:21:33;;;;;;;;;7.25;6.75;;;;;26.55;48.17;101776.06;5077038;28;46110;-85
2021/07/18 23:23:59;;;;;;;;;5.75;5.50;;;;;26.51;48.06;101771.66;5081001;27;45358;-85
2021/07/18 23:26:25;;;;;;;;;2.50;2.50;;;;;26.48;47.76;101776.97;5078688;28;45410;-85
2021/07/18 23:28:51;;;;;;;;;7.75;6.50;;;;;26.46;48.10;101778.78;5078350;28;45347;-84
2021/07/18 23:31:17;;;;;;;;;6.25;6.25;;;;;26.44;47.89;101778.78;5078050;28;45505;-85
2021/07/18 23:33:43;;;;;;;;;6.00;6.00;;;;;26.38;47.77;101776.16;5077566;28;45183;-84
2021/07/18 23:36:08;;;;;;;;;7.00;6.00;;;;;26.32;48.12;101771.78;5078931;27;45437;-84
2021/07/18 23:38:34;;;;;;;;;5.25;5.25;;;;;26.28;48.27;101772.66;5077901;28;45383;-85
2021/07/18 23:41:00;;;;;;;;;6.25;6.25;;;;;26.25;47.98;101772.69;5078803;28;45611;-86
2021/07/18 23:43:25;;;;;;;;;7.25;6.75;;;;;26.24;47.65;101778.91;5080162;28;46085;-84
2021/07/18 23:45:51;;;;;;;;;6.50;6.50;;;;;26.25;48.01;101772.69;5083159;28;45458;-84
2021/07/18 23:48:16;;;;;;;;;5.75;4.75;;;;;26.20;48.68;101767.41;5084359;28;45158;-85
2021/07/18 23:50:42;;;;;;;;;6.25;4.50;;;;;26.17;48.67;101763.88;5081115;28;45524;-85
2021/07/18 23:53:07;;;;;;;;;7.00;7.00;;;;;26.15;48.37;101763.91;5067049;28;45494;-86
2021/07/18 23:55:33;;;;;;;;;9.00;7.25;;;;;26.14;48.01;101778.06;5076183;27;45442;-85
2021/07/18 23:57:59;;;;;;;;;7.25;6.00;;;;;26.13;48.80;101762.16;5077848;27;45452;-85
